sensor_id;sensor_type;location;lat;lon;timestamp;P1;durP1;ratioP1;P2;durP2;ratioP2
6926;SDS011;3503;50.07605000;8.86719200;2023-03-16T00:06:15;8.50;;;4.23;;
6926;SDS011;3503;50.07605000;8.86719200;2023-03-16T00:21:18;8.97;;;4.70;;
6926;SDS011;3503;50.07605000;8.86719200;2023-03-16T00:36:21;10.23;;;4.57;;
6926;SDS011;3503;50.07605000;8.86719200;2023-03-16T00:51:24;7.50;;;4.50;;
6926;SDS011;3503;50.07605000;8.86719200;2023-03-16T01:06:27;15.83;;;5.10;;
6926;SDS011;3503;50.07605000;8.86719200;2023-03-16T01:21:30;12.43;;;4.50;;
6926;SDS011;3503;50.07605000;8.86719200;2023-03-16T01:36:35;13.83;;;4.23;;
6926;SDS011;3503;50.07605000;8.86719200;2023-03-16T01:51:39;14.33;;;4.93;;
6926;SDS011;3503;50.07605000;8.86719200;2023-03-16T02:06:44;20.33;;;6.07;;
6926;SDS011;3503;50.07605000;8.86719200;2023-03-16T02:21:48;14.47;;;4.67;;
6926;SDS011;3503;50.07605000;8.86719200;2023-03-16T02:36:55;14.13;;;4.97;;
6926;SDS011;3503;50.07605000;8.86719200;2023-03-16T02:51:58;8.60;;;4.47;;
6926;SDS011;3503;50.07605000;8.86719200;2023-03-16T03:07:01;11.50;;;5.20;;
6926;SDS011;3503;50.07605000;8.86719200;2023-03-16T03:22:06;11.40;;;5.07;;
6926;SDS011;3503;50.07605000;8.86719200;2023-03-16T03:37:09;16.07;;;5.97;;
6926;SDS011;3503;50.07605000;8.86719200;2023-03-16T03:52:12;11.30;;;4.93;;
6926;SDS011;3503;50.07605000;8.86719200;2023-03-16T04:07:15;10.50;;;4.47;;
6926;SDS011;3503;50.07605000;8.86719200;2023-03-16T04:22:18;13.05;;;4.47;;
6926;SDS011;3503;50.07605000;8.86719200;2023-03-16T04:37:23;12.80;;;4.97;;
6926;SDS011;3503;50.07605000;8.86719200;2023-03-16T04:52:26;12.73;;;5.67;;
6926;SDS011;3503;50.07605000;8.86719200;2023-03-16T05:07:29;13.30;;;5.07;;
6926;SDS011;3503;50.07605000;8.86719200;2023-03-16T05:22:33;11.27;;;5.67;;
6926;SDS011;3503;50.07605000;8.86719200;2023-03-16T05:37:36;13.10;;;6.33;;
6926;SDS011;3503;50.07605000;8.86719200;2023-03-16T05:52:39;15.40;;;6.60;;
6926;SDS011;3503;50.07605000;8.86719200;2023-03-16T06:07:42;15.80;;;7.73;;
6926;SDS011;3503;50.07605000;8.86719200;2023-03-16T06:22:45;17.17;;;7.23;;
6926;SDS011;3503;50.07605000;8.86719200;2023-03-16T06:37:48;12.87;;;6.50;;
6926;SDS011;3503;50.07605000;8.86719200;2023-03-16T06:52:52;14.97;;;7.30;;
6926;SDS011;3503;50.07605000;8.86719200;2023-03-16T07:07:54;16.93;;;7.10;;
6926;SDS011;3503;50.07605000;8.86719200;2023-03-16T07:22:57;10.67;;;6.20;;
6926;SDS011;3503;50.07605000;8.86719200;2023-03-16T07:38:00;6.93;;;4.73;;
6926;SDS011;3503;50.07605000;8.86719200;2023-03-16T07:53:03;7.37;;;4.10;;
6926;SDS011;3503;50.07605000;8.86719200;2023-03-16T08:08:06;18.33;;;9.90;;
6926;SDS011;3503;50.07605000;8.86719200;2023-03-16T08:23:10;7.47;;;4.93;;
6926;SDS011;3503;50.07605000;8.86719200;2023-03-16T08:38:13;9.40;;;5.50;;
6926;SDS011;3503;50.07605000;8.86719200;2023-03-16T08:53:17;11.20;;;5.57;;
6926;SDS011;3503;50.07605000;8.86719200;2023-03-16T09:08:21;14.77;;;7.10;;
6926;SDS011;3503;50.07605000;8.86719200;2023-03-16T09:23:24;7.87;;;5.13;;
6926;SDS011;3503;50.07605000;8.86719200;2023-03-16T09:38:28;8.43;;;4.93;;
6926;SDS011;3503;50.07605000;8.86719200;2023-03-16T09:53:32;6.77;;;4.40;;
6926;SDS011;3503;50.07605000;8.86719200;2023-03-16T10:08:37;5.73;;;4.60;;
6926;SDS011;3503;50.07605000;8.86719200;2023-03-16T10:23:42;12.43;;;4.80;;
6926;SDS011;3503;50.07605000;8.86719200;2023-03-16T10:38:46;13.03;;;5.10;;
6926;SDS011;3503;50.07605000;8.86719200;2023-03-16T10:53:51;8.87;;;4.80;;
6926;SDS011;3503;50.07605000;8.86719200;2023-03-16T11:09:01;9.80;;;6.43;;
6926;SDS011;3503;50.07605000;8.86719200;2023-03-16T11:24:13;10.63;;;6.10;;
6926;SDS011;3503;50.07605000;8.86719200;2023-03-16T11:39:21;10.80;;;6.27;;
6926;SDS011;3503;50.07605000;8.86719200;2023-03-16T11:54:34;9.70;;;5.30;;
6926;SDS011;3503;50.07605000;8.86719200;2023-03-16T12:09:47;8.60;;;5.60;;
6926;SDS011;3503;50.07605000;8.86719200;2023-03-16T12:24:58;8.20;;;4.90;;
6926;SDS011;3503;50.07605000;8.86719200;2023-03-16T12:40:08;8.97;;;5.63;;
6926;SDS011;3503;50.07605000;8.86719200;2023-03-16T12:55:24;9.77;;;5.13;;
6926;SDS011;3503;50.07605000;8.86719200;2023-03-16T13:10:29;9.30;;;5.27;;
6926;SDS011;3503;50.07605000;8.86719200;2023-03-16T13:25:38;7.77;;;4.63;;
6926;SDS011;3503;50.07605000;8.86719200;2023-03-16T13:40:46;7.27;;;5.30;;
6926;SDS011;3503;50.07605000;8.86719200;2023-03-16T13:55:51;7.57;;;4.07;;
6926;SDS011;3503;50.07605000;8.86719200;2023-03-16T14:10:55;8.87;;;4.40;;
6926;SDS011;3503;50.07605000;8.86719200;2023-03-16T14:25:58;11.70;;;3.70;;
6926;SDS011;3503;50.07605000;8.86719200;2023-03-16T14:41:02;6.17;;;3.33;;
6926;SDS011;3503;50.07605000;8.86719200;2023-03-16T14:56:09;5.60;;;3.20;;
6926;SDS011;3503;50.07605000;8.86719200;2023-03-16T15:11:15;5.07;;;2.90;;
6926;SDS011;3503;50.07605000;8.86719200;2023-03-16T15:26:22;7.13;;;3.03;;
6926;SDS011;3503;50.07605000;8.86719200;2023-03-16T15:41:27;12.83;;;2.07;;
6926;SDS011;3503;50.07605000;8.86719200;2023-03-16T15:56:31;3.73;;;2.30;;
6926;SDS011;3503;50.07605000;8.86719200;2023-03-16T16:11:35;4.67;;;1.87;;
6926;SDS011;3503;50.07605000;8.86719200;2023-03-16T16:26:39;8.37;;;2.90;;
6926;SDS011;3503;50.07605000;8.86719200;2023-03-16T16:41:45;6.80;;;2.50;;
6926;SDS011;3503;50.07605000;8.86719200;2023-03-16T16:56:50;4.57;;;1.90;;
6926;SDS011;3503;50.07605000;8.86719200;2023-03-16T17:11:55;5.10;;;2.13;;
6926;SDS011;3503;50.07605000;8.86719200;2023-03-16T17:27:00;5.20;;;2.00;;
6926;SDS011;3503;50.07605000;8.86719200;2023-03-16T17:42:05;5.50;;;1.90;;
6926;SDS011;3503;50.07605000;8.86719200;2023-03-16T17:57:13;4.10;;;2.13;;
6926;SDS011;3503;50.07605000;8.86719200;2023-03-16T18:12:18;4.90;;;2.20;;
6926;SDS011;3503;50.07605000;8.86719200;2023-03-16T18:27:21;3.90;;;1.77;;
6926;SDS011;3503;50.07605000;8.86719200;2023-03-16T18:42:24;4.67;;;1.70;;
6926;SDS011;3503;50.07605000;8.86719200;2023-03-16T18:57:28;5.90;;;2.37;;
6926;SDS011;3503;50.07605000;8.86719200;2023-03-16T19:12:32;8.10;;;1.90;;
6926;SDS011;3503;50.07605000;8.86719200;2023-03-16T19:27:35;7.60;;;2.40;;
6926;SDS011;3503;50.07605000;8.86719200;2023-03-16T19:42:38;6.90;;;2.97;;
6926;SDS011;3503;50.07605000;8.86719200;2023-03-16T19:57:42;8.60;;;4.20;;
6926;SDS011;3503;50.07605000;8.86719200;2023-03-16T20:12:46;11.77;;;5.80;;
6926;SDS011;3503;50.07605000;8.86719200;2023-03-16T20:27:52;13.47;;;6.60;;
6926;SDS011;3503;50.07605000;8.86719200;2023-03-16T20:42:56;22.97;;;11.53;;
6926;SDS011;3503;50.07605000;8.86719200;2023-03-16T20:57:59;10.30;;;6.20;;
6926;SDS011;3503;50.07605000;8.86719200;2023-03-16T21:13:03;12.00;;;5.73;;
6926;SDS011;3503;50.07605000;8.86719200;2023-03-16T21:28:06;7.77;;;4.40;;
6926;SDS011;3503;50.07605000;8.86719200;2023-03-16T21:43:11;6.87;;;3.63;;
6926;SDS011;3503;50.07605000;8.86719200;2023-03-16T21:58:15;7.93;;;3.83;;
6926;SDS011;3503;50.07605000;8.86719200;2023-03-16T22:13:18;6.93;;;4.13;;
6926;SDS011;3503;50.07605000;8.86719200;2023-03-16T22:28:22;9.07;;;3.90;;
6926;SDS011;3503;50.07605000;8.86719200;2023-03-16T22:43:27;6.87;;;3.30;;
6926;SDS011;3503;50.07605000;8.86719200;2023-03-16T22:58:32;12.63;;;4.20;;
6926;SDS011;3503;50.07605000;8.86719200;2023-03-16T23:13:37;13.00;;;4.67;;
6926;SDS011;3503;50.07605000;8.86719200;2023-03-16T23:28:40;6.97;;;4.33;;
6926;SDS011;3503;50.07605000;8.86719200;2023-03-16T23:43:44;9.57;;;3.40;;
6926;SDS011;3503;50.07605000;8.86719200;2023-03-16T23:58:47;8.03;;;4.17;;
